• Join FlightAware (Why Join?)
  • Login
  • US Flag 
10:15AM EST


 

Airport Tracker/Info


-or-


 

Live Flight TrackerFlight Track Log ✈ SWA862 ✈ 20-Apr-2013 ✈ KSMF - KPDX

Flight Track Log - Related Links

Times and Time Zones

All times are in EDT time to prevent confusion due to time zone crossing. See the SWA862 flight status page for this flight to view local times or setup timezone preferences in your user account.

Time Position Orientation Groundspeed Altitude Reporting Facility
EDT Latitude Longitude Course Direction KTS MPH feet Rate Location/Type
03:20PM 38.7667 -121.6000 360° North 208 239 3,400  Level Northern Cal TRACON
03:21PM 38.8500 -121.6167 351° North 256 295 6,400 3,060 Climbing Northern Cal TRACON
03:22PM 38.9167 -121.6333 349° North 265 305 9,600 2,760 Climbing Northern Cal TRACON
03:23PM 38.9492 -121.6361 356° North 270 311 10,700 1,740 Climbing Oakland Center
03:24PM 39.0383 -121.6528 352° North 329 379 12,500 2,460 Climbing Oakland Center
03:25PM 39.2251 -121.8297 341° North  Level FlightAware Approximate
03:25PM 39.1517 -121.6758 351° North 343 395 15,800  Level Oakland Center
03:26PM 39.2519 -121.6950 352° North 361 415 18,200 2,220 Climbing Oakland Center
03:27PM 39.3525 -121.7156 351° North 365 420 20,400 2,040 Climbing Oakland Center
03:28PM 39.4583 -121.7375 351° North 382 440 22,400 1,800 Climbing Oakland Center
03:29PM 39.5561 -121.7553 352° North 386 444 24,100 1,680 Climbing Oakland Center
03:30PM 39.6872 -121.7819 351° North 398 458 25,900 1,800 Climbing Oakland Center
03:31PM 39.7983 -121.8039 351° North 405 466 27,800 1,800 Climbing Oakland Center
03:32PM 39.9072 -121.8269 351° North 400 460 29,600 1,680 Climbing Oakland Center
03:33PM 40.0147 -121.8492 351° North 394 453 31,300 1,620 Climbing Oakland Center
03:34PM 40.1186 -121.8706 351° North 385 443 33,000 1,320 Climbing Oakland Center
03:35PM 40.2208 -121.8908 351° North 377 434 34,100 1,140 Climbing Oakland Center
03:36PM 40.3239 -121.9117 351° North 377 434 35,400 900 Climbing Oakland Center
03:37PM 40.4456 -121.9369 351° North 372 428 36,000 240 Climbing Oakland Center
03:38PM 40.5481 -121.9583 351° North 374 430 36,000  Level Oakland Center
03:39PM 40.6506 -121.9803 351° North 375 432 36,000  Level Oakland Center
03:40PM 40.7517 -122.0011 351° North 371 427 36,000  Level Oakland Center
03:41PM 40.8547 -122.0231 351° North 374 430 36,000  Level Oakland Center
03:43PM 41.0389 -122.0622 351° North 372 428 36,000  Level Seattle Center
03:43PM 41.0581 -122.0664 351° North 370 426 36,000  Level Oakland Center
03:44PM 41.1408 -122.0836 351° North 371 427 36,000  Level Seattle Center
03:45PM 41.2442 -122.1064 351° North 376 433 36,000  Level Seattle Center
03:46PM 41.3464 -122.1286 351° North 374 430 36,000  Level Seattle Center
03:46PM 41.3656 -122.1358 344° North 372 428 36,000  Level Oakland Center
03:47PM 41.4489 -122.1503 353° North 373 429 36,000  Level Seattle Center
03:48PM 41.5517 -122.1742 350° North 373 429 36,000  Level Seattle Center
03:49PM 41.6536 -122.1958 351° North 370 426 36,000  Level Seattle Center
03:50PM 41.7556 -122.2172 351° North 369 425 36,000  Level Seattle Center
03:51PM 41.8581 -122.2394 351° North 368 423 36,000  Level Seattle Center
03:52PM 41.9622 -122.2611 351° North 372 428 36,000  Level Seattle Center
03:53PM 42.0644 -122.2831 351° North 368 423 36,000  Level Seattle Center
03:54PM 42.1661 -122.3044 351° North 366 421 36,000  Level Seattle Center
03:55PM 42.2678 -122.3264 351° North 365 420 36,000  Level Seattle Center
03:56PM 42.3706 -122.3481 351° North 370 426 36,000  Level Seattle Center
03:57PM 42.4714 -122.3714 350° North 367 422 36,000  Level Seattle Center
03:58PM 42.5728 -122.3947 350° North 368 423 36,000  Level Seattle Center
03:59PM 42.6739 -122.4158 351° North 366 421 36,000  Level Seattle Center
04:00PM 42.7853 -122.4411 351° North 364 419 36,000  Level Seattle Center
04:01PM 42.8847 -122.4636 351° North 362 417 36,000  Level Seattle Center
04:02PM 42.9850 -122.4853 351° North 365 420 36,000  Level Seattle Center
04:03PM 43.0850 -122.5067 351° North 363 418 36,000  Level Seattle Center
04:04PM 43.1847 -122.5292 351° North 362 417 36,000  Level Seattle Center
04:05PM 43.2844 -122.5519 351° North 361 415 36,000  Level Seattle Center
04:06PM 43.3836 -122.5733 351° North 361 415 36,000  Level Seattle Center
04:07PM 43.4836 -122.5972 350° North 363 418 36,000  Level Seattle Center
04:08PM 43.5814 -122.6211 350° North 359 413 36,000  Level Seattle Center
04:09PM 43.6811 -122.6431 351° North 362 417 36,000  Level Seattle Center
04:10PM 43.7806 -122.6658 351° North 362 417 36,000 -60 Level Seattle Center
04:11PM 43.8983 -122.6931 351° North 360 414 35,900 -1,380 Descending Seattle Center
04:12PM 43.9989 -122.7161 351° North 365 420 33,300 -2,580 Descending Seattle Center
04:13PM 44.0989 -122.7400 350° North 367 422 30,700 -2,340 Descending Seattle Center
04:14PM 44.1972 -122.7492 356° North 358 412 28,600 -2,040 Descending Seattle Center
04:15PM 44.2939 -122.7386 North 352 405 26,600 -2,160 Descending Seattle Center
04:16PM 44.3969 -122.7289 North 351 404 24,300 -2,220 Descending Seattle Center
04:17PM 44.4908 -122.7194 North 343 395 22,200 -2,220 Descending Seattle Center
04:18PM 44.5828 -122.7106 North 334 384 19,900 -2,100 Descending Seattle Center
04:19PM 44.6386 -122.7058 North 331 381 18,900 -1,620 Descending Seattle Center
04:19PM 44.6725 -122.7017 North 328 377 18,300 -1,440 Descending Seattle Center
04:20PM 44.6983 -122.7003 North 317 365 17,900 -1,620 Descending Seattle Center
04:20PM 44.7597 -122.6936 North 319 367 16,700 -1,860 Descending Seattle Center
04:21PM 44.8481 -122.6839 North 320 368 14,700 -1,980 Descending Seattle Center
04:22PM 44.8828 -122.6808 North 318 366 14,200 -1,680 Descending Seattle Center
04:22PM 44.9333 -122.6753 North 312 359 13,000 -1,800 Descending Seattle Center
04:23PM 44.9656 -122.6719 North 296 341 12,400 -1,800 Descending Seattle Center
04:23PM 45.0150 -122.6681 North 301 346 11,200 -1,920 Descending Seattle Center
04:24PM 45.0461 -122.6639 North 292 336 10,500 -1,500 Descending Seattle Center
04:24PM 45.0939 -122.6589 North 289 333 9,700 -1,440 Descending Seattle Center
04:25PM 45.1250 -122.6564 North 277 319 9,100 -1,500 Descending Seattle Center
04:25PM 45.1675 -122.6517 North 272 313 8,200 -1,440 Descending Seattle Center
04:26PM 45.2406 -122.6433 North 265 305 6,600 -1,680 Descending Seattle Center
04:27PM 45.2967 -122.5850 36° Northeast 269 310 4,900 -1,800 Descending Seattle Center
04:28PM 45.3069 -122.5394 72° East 264 304 4,300 -900 Descending Seattle Center
04:28PM 45.3408 -122.4836 49° Northeast 256 295 4,000 -300 Descending Seattle Center
04:29PM 45.3533 -122.4683 41° Northeast 228 262 4,000  Level Seattle Center
04:29PM 45.3864 -122.4192 46° Northeast 236 272 4,000 -120 Level Seattle Center
04:30PM 45.3967 -122.4044 45° Northeast 225 259 3,900 -1,140 Descending Seattle Center
04:30PM 45.4394 -122.3731 27° Northeast 226 260 2,900 -780 Descending Seattle Center
04:32PM 45.5028 -122.3822 354° North 191 220 2,500 -300 Descending Seattle Center
04:32PM 45.5297 -122.4297 309° West 159 183 2,400 -600 Descending Seattle Center
04:33PM 45.5525 -122.4883 299° West 168 193 1,400 -900 Descending Seattle Center
04:34PM 45.5708 -122.5364 299° West 133 153 600 -840 Descending Seattle Center